createdAt,value
2019-04-21T00:01:00.368Z,6084.00
2019-04-21T00:02:50.426Z,6276.00
2019-04-21T00:03:54.912Z,6244.00
2019-04-21T00:06:04.630Z,5288.00
2019-04-21T00:07:05.801Z,4900.00
2019-04-21T00:08:57.927Z,5032.00
2019-04-21T00:09:59.562Z,5288.00
2019-04-21T00:11:48.241Z,6088.00
2019-04-21T00:12:49.271Z,5244.00
2019-04-21T00:14:36.962Z,4848.00
2019-04-21T00:15:29.777Z,4872.00
2019-04-21T00:17:18.201Z,5112.00
2019-04-21T00:18:17.009Z,4948.00
2019-04-21T00:20:18.947Z,4560.00
2019-04-21T00:21:20.499Z,4500.00
2019-04-21T00:23:18.179Z,5016.00
2019-04-21T00:24:16.275Z,5260.00
2019-04-21T00:26:07.513Z,5524.00
2019-04-21T00:27:14.219Z,5480.00
2019-04-21T00:30:14.098Z,5212.00
2019-04-21T00:32:00.242Z,5488.00
2019-04-21T00:32:54.121Z,5588.00
2019-04-21T00:34:36.360Z,5420.00
2019-04-21T00:35:45.072Z,5224.00
2019-04-21T00:37:49.387Z,5324.00
2019-04-21T00:38:59.168Z,5044.00
2019-04-21T00:40:52.234Z,4788.00
2019-04-21T00:41:43.540Z,4668.00
2019-04-21T00:43:32.934Z,4796.00
2019-04-21T00:44:27.046Z,4600.00
2019-04-21T00:46:29.567Z,4928.00
2019-04-21T00:47:30.593Z,5084.00
2019-04-21T00:49:20.802Z,5120.00
2019-04-21T00:50:25.596Z,5160.00
2019-04-21T00:52:36.690Z,4932.00
2019-04-21T00:53:27.361Z,4752.00
2019-04-21T00:55:21.872Z,4628.00
2019-04-21T00:56:20.154Z,4608.00
2019-04-21T00:58:10.755Z,5052.00
2019-04-21T00:59:05.861Z,5276.00
2019-04-21T01:01:00.457Z,5324.00
2019-04-21T01:01:55.599Z,5084.00
2019-04-21T01:03:53.163Z,4680.00
2019-04-21T01:06:53.107Z,4656.00
2019-04-21T01:07:42.457Z,4404.00
2019-04-21T01:09:31.737Z,4432.00
2019-04-21T01:10:28.714Z,4416.00
2019-04-21T01:12:34.972Z,4836.00
2019-04-21T01:13:38.321Z,4736.00
2019-04-21T01:15:30.648Z,4780.00
2019-04-21T01:16:28.649Z,4448.00
2019-04-21T01:18:16.708Z,4280.00
2019-04-21T01:19:18.321Z,4712.00
2019-04-21T01:20:50.471Z,5300.00
2019-04-21T01:21:50.270Z,4624.00
2019-04-21T01:23:44.457Z,5208.00
2019-04-21T01:24:46.810Z,5504.00
2019-04-21T01:26:49.505Z,5916.00
2019-04-21T01:27:53.788Z,6144.00
2019-04-21T01:29:56.612Z,6068.00
2019-04-21T01:30:53.464Z,6172.00
2019-04-21T01:32:45.169Z,6008.00
2019-04-21T01:33:44.914Z,5732.00
2019-04-21T01:35:39.804Z,5256.00
2019-04-21T01:36:34.666Z,5384.00
2019-04-21T01:38:34.343Z,5424.00
2019-04-21T01:39:34.928Z,5156.00
2019-04-21T01:41:25.483Z,5140.00
2019-04-21T01:42:21.649Z,5020.00
2019-04-21T01:44:22.424Z,5044.00
2019-04-21T01:45:20.103Z,5020.00
2019-04-21T01:47:07.061Z,4868.00
2019-04-21T01:48:05.737Z,4776.00
2019-04-21T01:49:55.597Z,4640.00
2019-04-21T01:51:04.388Z,4432.00
2019-04-21T01:52:58.949Z,4580.00
2019-04-21T01:53:55.073Z,4348.00
2019-04-21T01:55:49.893Z,4524.00
2019-04-21T01:56:46.534Z,4764.00
2019-04-21T01:58:33.721Z,4524.00
2019-04-21T01:59:35.269Z,4768.00
2019-04-21T02:01:46.121Z,4792.00
2019-04-21T02:02:36.008Z,4864.00
2019-04-21T02:04:37.410Z,4856.00
2019-04-21T02:05:40.904Z,4676.00
2019-04-21T02:07:27.096Z,4684.00
2019-04-21T02:08:24.295Z,4560.00
2019-04-21T02:10:17.688Z,4328.00
2019-04-21T02:11:16.999Z,4252.00
2019-04-21T02:13:10.294Z,4084.00
2019-04-21T02:14:10.188Z,4072.00
2019-04-21T02:16:07.926Z,3960.00
2019-04-21T02:17:10.353Z,3864.00
2019-04-21T02:18:55.584Z,3476.00
2019-04-21T02:19:51.748Z,4008.00
2019-04-21T02:21:46.196Z,3340.00
2019-04-21T02:23:07.358Z,3644.00
2019-04-21T02:24:53.548Z,3924.00
2019-04-21T02:25:47.664Z,4480.00
2019-04-21T02:27:36.269Z,3864.00
2019-04-21T02:28:44.091Z,4384.00
2019-04-21T02:30:50.079Z,4504.00
2019-04-21T02:33:36.170Z,4972.00
2019-04-21T02:37:40.358Z,4912.00
2019-04-21T02:39:19.219Z,5368.00
2019-04-21T02:40:22.327Z,5228.00
2019-04-21T02:42:11.540Z,5472.00
2019-04-21T02:45:08.558Z,4788.00
2019-04-21T02:51:54.431Z,4692.00
2019-04-21T02:56:48.215Z,4272.00
2019-04-21T02:57:41.302Z,4316.00
2019-04-21T02:59:33.790Z,4144.00
2019-04-21T03:00:43.983Z,4388.00
2019-04-21T03:02:39.063Z,4152.00
2019-04-21T03:03:32.327Z,4200.00
2019-04-21T03:05:31.072Z,4204.00
2019-04-21T03:06:27.150Z,4348.00
2019-04-21T03:08:19.098Z,4416.00
2019-04-21T03:09:20.410Z,4584.00
2019-04-21T03:12:11.259Z,4484.00
2019-04-21T03:14:05.947Z,4436.00
2019-04-21T03:15:03.611Z,4460.00
2019-04-21T03:16:47.100Z,4352.00
2019-04-21T03:17:59.573Z,4244.00
2019-04-21T03:19:50.510Z,4292.00
2019-04-21T03:20:50.980Z,4348.00
2019-04-21T03:23:00.167Z,4420.00
2019-04-21T03:23:51.705Z,4288.00
2019-04-21T03:25:44.183Z,4328.00
2019-04-21T03:26:36.605Z,4216.00
2019-04-21T03:28:32.230Z,4264.00
2019-04-21T03:29:28.177Z,4080.00
2019-04-21T03:32:54.780Z,3640.00
2019-04-21T03:35:58.208Z,3632.00
2019-04-21T03:37:09.668Z,3816.00
2019-04-21T03:40:01.176Z,3524.00
2019-04-21T03:40:57.284Z,3644.00
2019-04-21T03:44:00.753Z,3848.00
2019-04-21T03:45:42.819Z,4196.00
2019-04-21T03:46:47.300Z,4304.00
2019-04-21T03:48:42.800Z,4280.00
2019-04-21T03:49:48.991Z,4312.00
2019-04-21T03:52:39.282Z,4736.00
2019-04-21T03:54:25.212Z,4872.00
2019-04-21T03:55:50.371Z,4860.00
2019-04-21T04:00:21.967Z,4164.00
2019-04-21T04:01:08.048Z,4160.00
2019-04-21T04:03:23.614Z,3928.00
2019-04-21T04:04:14.960Z,3740.00
2019-04-21T04:06:20.085Z,3516.00
2019-04-21T04:07:25.091Z,3216.00
2019-04-21T04:08:57.590Z,3248.00
2019-04-21T04:10:11.829Z,3600.00
2019-04-21T04:11:51.115Z,4028.00
2019-04-21T04:12:52.554Z,4088.00
2019-04-21T04:16:02.100Z,3872.00
2019-04-21T04:17:36.464Z,3872.00
2019-04-21T04:20:28.484Z,3652.00
2019-04-21T04:23:28.516Z,3200.00
2019-04-21T04:26:14.723Z,2972.00
2019-04-21T04:30:27.628Z,2756.00
2019-04-21T04:31:58.792Z,2932.00
2019-04-21T04:33:03.316Z,2868.00
2019-04-21T04:34:59.514Z,2396.00
2019-04-21T04:36:01.391Z,2260.00
2019-04-21T04:38:07.173Z,2020.00
2019-04-21T04:40:41.504Z,1844.00
2019-04-21T04:41:53.026Z,1784.00
2019-04-21T04:46:26.756Z,2176.00
2019-04-21T04:47:28.009Z,2280.00
2019-04-21T04:49:39.631Z,2536.00
2019-04-21T04:50:24.501Z,2776.00
2019-04-21T04:52:32.807Z,2924.00
2019-04-21T04:53:22.415Z,2816.00
2019-04-21T04:59:23.041Z,3092.00
2019-04-21T05:02:00.246Z,3140.00
2019-04-21T05:03:52.483Z,3472.00
2019-04-21T05:04:58.690Z,3536.00
2019-04-21T05:06:46.215Z,3632.00
2019-04-21T05:07:52.368Z,3756.00
2019-04-21T05:09:31.986Z,3832.00
2019-04-21T05:11:01.352Z,3696.00
2019-04-21T05:12:22.676Z,3344.00
2019-04-21T05:13:26.021Z,3276.00
2019-04-21T05:16:26.377Z,3348.00
2019-04-21T05:18:13.600Z,3316.00
2019-04-21T05:19:14.617Z,3356.00
2019-04-21T05:21:14.312Z,3248.00
2019-04-21T05:22:12.848Z,3208.00
2019-04-21T05:23:51.155Z,3152.00
2019-04-21T05:24:52.655Z,3076.00
2019-04-21T05:26:46.118Z,2980.00
2019-04-21T05:27:39.914Z,2888.00
2019-04-21T05:29:40.263Z,3072.00
2019-04-21T05:30:40.401Z,3144.00
2019-04-21T05:32:37.895Z,2892.00
2019-04-21T05:33:43.063Z,2712.00
2019-04-21T05:35:26.655Z,2332.00
2019-04-21T05:36:29.003Z,2128.00
2019-04-21T05:38:17.672Z,1948.00
2019-04-21T05:39:14.648Z,1936.00
2019-04-21T05:41:03.845Z,1836.00
2019-04-21T05:42:02.127Z,1856.00
2019-04-21T05:44:06.265Z,1940.00
2019-04-21T05:45:12.715Z,2208.00
2019-04-21T05:47:07.861Z,2516.00
2019-04-21T05:48:15.913Z,2560.00
2019-04-21T05:49:51.285Z,2748.00
2019-04-21T05:50:49.603Z,2904.00
2019-04-21T05:52:41.818Z,3100.00
2019-04-21T05:53:50.556Z,3064.00
2019-04-21T05:55:45.973Z,2848.00
2019-04-21T05:56:42.390Z,2684.00
2019-04-21T05:59:33.883Z,2704.00
2019-04-21T06:01:36.034Z,2708.00
2019-04-21T06:02:42.002Z,2712.00
2019-04-21T06:04:40.373Z,2724.00
2019-04-21T06:07:18.854Z,2568.00
2019-04-21T06:08:15.799Z,2776.00
2019-04-21T06:10:20.373Z,3244.00
2019-04-21T06:11:08.538Z,3424.00
2019-04-21T06:13:07.124Z,3748.00
2019-04-21T06:14:01.381Z,3768.00
2019-04-21T06:16:56.986Z,3984.00
2019-04-21T06:19:49.524Z,3888.00
2019-04-21T06:21:40.432Z,3620.00
2019-04-21T06:22:36.341Z,3380.00
2019-04-21T06:24:38.196Z,2964.00
2019-04-21T06:27:34.076Z,3256.00
2019-04-21T06:28:30.290Z,3408.00
2019-04-21T06:30:22.062Z,3596.00
2019-04-21T06:31:44.557Z,3760.00
2019-04-21T06:33:15.444Z,3880.00
2019-04-21T06:34:16.855Z,3800.00
2019-04-21T06:36:24.139Z,3544.00
2019-04-21T06:37:32.684Z,3468.00
2019-04-21T06:39:12.286Z,3284.00
2019-04-21T06:41:45.262Z,3704.00
2019-04-21T06:43:07.922Z,3684.00
2019-04-21T06:44:53.781Z,3492.00
2019-04-21T06:46:03.693Z,3464.00
2019-04-21T06:47:42.194Z,3104.00
2019-04-21T06:48:40.911Z,2996.00
2019-04-21T06:50:41.525Z,2140.00
2019-04-21T06:51:32.443Z,1800.00
2019-04-21T06:53:29.554Z,1440.00
2019-04-21T06:54:30.557Z,1344.00
2019-04-21T06:56:25.231Z,1060.00
2019-04-21T06:57:22.092Z,968.00
2019-04-21T06:59:17.451Z,992.00
2019-04-21T07:00:12.099Z,1048.00
2019-04-21T07:02:24.881Z,1052.00
2019-04-21T07:03:17.100Z,1064.00
2019-04-21T07:05:02.023Z,1144.00
2019-04-21T07:06:03.220Z,1304.00
2019-04-21T07:08:07.614Z,1804.00
2019-04-21T07:09:02.915Z,1988.00
2019-04-21T07:10:43.251Z,2204.00
2019-04-21T07:11:43.961Z,2220.00
2019-04-21T07:13:39.824Z,1988.00
2019-04-21T07:14:52.734Z,1928.00
2019-04-21T07:16:32.165Z,1788.00
2019-04-21T07:17:45.397Z,1992.00
2019-04-21T07:19:36.647Z,2604.00
2019-04-21T07:20:21.964Z,2660.00
2019-04-21T07:22:19.570Z,2240.00
2019-04-21T07:23:23.834Z,2108.00
2019-04-21T07:25:13.762Z,1532.00
2019-04-21T07:26:10.429Z,1408.00
2019-04-21T07:28:07.434Z,1340.00
2019-04-21T07:29:08.096Z,1064.00
2019-04-21T07:30:59.550Z,1084.00
2019-04-21T07:32:20.771Z,1216.00
2019-04-21T07:34:52.123Z,1524.00
2019-04-21T07:36:50.899Z,1352.00
2019-04-21T07:37:51.171Z,1432.00
2019-04-21T07:39:33.576Z,1392.00
2019-04-21T07:40:36.478Z,1332.00
2019-04-21T07:42:28.250Z,1452.00
2019-04-21T07:43:25.929Z,1440.00
2019-04-21T07:45:21.238Z,1380.00
2019-04-21T07:46:17.206Z,1528.00
2019-04-21T07:48:21.679Z,1696.00
2019-04-21T07:49:12.465Z,1672.00
2019-04-21T07:51:15.414Z,1728.00
2019-04-21T07:52:11.344Z,1700.00
2019-04-21T07:54:13.492Z,1720.00
2019-04-21T07:55:23.629Z,1712.00
2019-04-21T07:56:43.911Z,1544.00
2019-04-21T07:57:52.813Z,1448.00
2019-04-21T08:00:13.243Z,1612.00
2019-04-21T08:01:12.417Z,1764.00
2019-04-21T08:03:05.797Z,1660.00
2019-04-21T08:03:45.817Z,1632.00
2019-04-21T08:05:40.433Z,1492.00
2019-04-21T08:06:40.581Z,1460.00
2019-04-21T08:08:26.573Z,1900.00
2019-04-21T08:09:32.926Z,2048.00
2019-04-21T08:11:19.736Z,1968.00
2019-04-21T08:12:20.241Z,2028.00
2019-04-21T08:14:18.822Z,2096.00
2019-04-21T08:15:24.962Z,2292.00
2019-04-21T08:17:14.738Z,2384.00
2019-04-21T08:18:12.962Z,2420.00
2019-04-21T08:19:59.117Z,2208.00
2019-04-21T08:21:01.360Z,1884.00
2019-04-21T08:23:13.056Z,1872.00
2019-04-21T08:23:54.222Z,1968.00
2019-04-21T08:25:58.929Z,2052.00
2019-04-21T08:26:53.445Z,2232.00
2019-04-21T08:28:45.742Z,2476.00
2019-04-21T08:29:46.046Z,2176.00
2019-04-21T08:31:49.925Z,1784.00
2019-04-21T08:32:52.785Z,1712.00
2019-04-21T08:34:37.345Z,1480.00
2019-04-21T08:37:27.683Z,1220.00
2019-04-21T08:38:20.359Z,1168.00
2019-04-21T08:41:14.938Z,1660.00
2019-04-21T08:43:11.750Z,1448.00
2019-04-21T08:44:16.757Z,1284.00
2019-04-21T08:46:06.294Z,1024.00
2019-04-21T08:47:06.080Z,844.00
2019-04-21T08:50:25.401Z,1156.00
2019-04-21T08:53:27.302Z,2024.00
2019-04-21T08:54:28.119Z,1608.00
2019-04-21T08:56:16.434Z,1340.00
2019-04-21T08:57:14.590Z,1516.00
2019-04-21T08:59:12.768Z,1700.00
2019-04-21T09:00:16.397Z,1892.00
2019-04-21T09:02:01.350Z,2280.00
2019-04-21T09:03:01.817Z,1984.00
2019-04-21T09:04:52.474Z,1624.00
2019-04-21T09:05:57.134Z,1616.00
2019-04-21T09:07:55.362Z,1468.00
2019-04-21T09:08:53.587Z,1472.00
2019-04-21T09:10:39.703Z,1548.00
2019-04-21T09:11:40.379Z,1428.00
2019-04-21T09:13:37.220Z,1464.00
2019-04-21T09:14:39.461Z,1856.00
2019-04-21T09:16:27.839Z,1892.00
2019-04-21T09:17:22.430Z,1532.00
2019-04-21T09:19:33.627Z,1184.00
2019-04-21T09:22:12.868Z,972.00
2019-04-21T09:23:13.299Z,988.00
2019-04-21T09:25:01.666Z,964.00
2019-04-21T09:26:06.050Z,816.00
2019-04-21T09:28:01.322Z,864.00
2019-04-21T09:28:51.923Z,988.00
2019-04-21T09:30:42.161Z,1236.00
2019-04-21T09:31:39.743Z,1252.00
2019-04-21T09:33:35.677Z,1028.00
2019-04-21T09:34:35.914Z,1092.00
2019-04-21T09:36:25.453Z,1220.00
2019-04-21T09:37:32.988Z,1476.00
2019-04-21T09:39:20.121Z,1640.00
2019-04-21T09:40:20.501Z,1696.00
2019-04-21T09:42:09.018Z,1532.00
2019-04-21T09:43:11.947Z,1312.00
2019-04-21T09:45:05.846Z,1072.00
2019-04-21T09:46:02.354Z,1032.00
2019-04-21T09:48:02.667Z,944.00
2019-04-21T09:49:01.995Z,956.00
2019-04-21T09:50:50.343Z,900.00
2019-04-21T09:51:50.220Z,844.00
2019-04-21T09:53:43.913Z,772.00
2019-04-21T09:54:53.276Z,744.00
2019-04-21T09:56:46.250Z,724.00
2019-04-21T09:57:43.348Z,720.00
2019-04-21T09:59:33.625Z,696.00
2019-04-21T10:00:37.949Z,704.00
2019-04-21T10:02:36.178Z,684.00
2019-04-21T10:03:23.077Z,680.00
2019-04-21T10:05:16.793Z,652.00
2019-04-21T10:06:17.509Z,620.00
2019-04-21T10:08:10.423Z,588.00
2019-04-21T10:09:13.882Z,556.00
2019-04-21T10:11:03.268Z,504.00
2019-04-21T10:12:03.108Z,488.00
2019-04-21T10:13:55.991Z,456.00
2019-04-21T10:14:55.785Z,432.00
2019-04-21T10:16:49.565Z,408.00
2019-04-21T10:17:49.627Z,408.00
2019-04-21T10:19:42.611Z,460.00
2019-04-21T10:20:42.796Z,492.00
2019-04-21T10:22:37.140Z,548.00
2019-04-21T10:23:35.893Z,560.00
2019-04-21T10:25:30.504Z,716.00
2019-04-21T10:26:30.469Z,800.00
2019-04-21T10:28:23.314Z,772.00
2019-04-21T10:29:25.848Z,728.00
2019-04-21T10:31:16.700Z,700.00
2019-04-21T10:32:18.301Z,700.00
2019-04-21T10:34:09.377Z,616.00
2019-04-21T10:35:09.197Z,516.00
2019-04-21T10:37:02.893Z,424.00
2019-04-21T10:38:14.959Z,416.00
2019-04-21T10:39:55.967Z,408.00
2019-04-21T10:40:57.042Z,388.00
2019-04-21T10:42:50.073Z,384.00
2019-04-21T10:43:49.380Z,392.00
2019-04-21T10:45:43.249Z,392.00
2019-04-21T10:46:43.434Z,380.00
2019-04-21T10:48:37.872Z,368.00
2019-04-21T10:49:36.894Z,368.00
2019-04-21T10:51:29.266Z,372.00
2019-04-21T10:52:31.255Z,364.00
2019-04-21T10:54:24.067Z,392.00
2019-04-21T10:55:40.038Z,408.00
2019-04-21T10:57:16.727Z,372.00
2019-04-21T10:58:16.179Z,352.00
2019-04-21T11:00:11.960Z,300.00
2019-04-21T11:01:10.594Z,268.00
2019-04-21T11:03:02.640Z,216.00
2019-04-21T11:04:02.750Z,192.00
2019-04-21T11:05:56.754Z,156.00
2019-04-21T11:07:04.228Z,140.00
2019-04-21T11:08:53.904Z,100.00
2019-04-21T11:09:49.851Z,84.00
2019-04-21T11:11:46.096Z,64.00
2019-04-21T11:12:44.640Z,60.00
2019-04-21T11:14:36.550Z,56.00
2019-04-21T11:15:37.011Z,52.00
2019-04-21T11:17:30.289Z,44.00
2019-04-21T11:18:30.075Z,48.00
2019-04-21T11:20:24.611Z,48.00
2019-04-21T11:21:23.237Z,52.00
2019-04-21T11:23:19.591Z,52.00
2019-04-21T11:24:18.010Z,48.00
2019-04-21T11:26:10.026Z,40.00
2019-04-21T11:27:10.908Z,36.00
2019-04-21T11:29:03.485Z,28.00
2019-04-21T11:30:03.278Z,28.00
2019-04-21T11:31:56.906Z,24.00
2019-04-21T11:32:57.135Z,28.00
2019-04-21T11:34:51.417Z,28.00
2019-04-21T11:35:51.092Z,32.00
2019-04-21T11:37:44.080Z,32.00
2019-04-21T11:38:57.111Z,32.00
2019-04-21T11:40:38.030Z,40.00
2019-04-21T11:41:36.650Z,40.00
2019-04-21T11:43:30.776Z,36.00
2019-04-21T11:44:31.025Z,28.00
2019-04-21T11:46:24.472Z,20.00
2019-04-21T11:47:24.634Z,16.00
2019-04-21T11:49:17.964Z,16.00
2019-04-21T11:50:17.182Z,12.00
2019-04-21T11:52:11.213Z,8.00
2019-04-21T11:53:10.637Z,4.00
2019-04-21T11:55:04.614Z,8.00
2019-04-21T11:56:03.274Z,8.00
2019-04-21T11:57:58.236Z,8.00
2019-04-21T11:58:57.829Z,8.00
2019-04-21T12:00:50.929Z,8.00
2019-04-21T12:01:49.967Z,4.00
2019-04-21T12:03:43.536Z,4.00
2019-04-21T12:04:43.494Z,4.00
2019-04-21T12:06:43.104Z,4.00
2019-04-21T12:07:37.593Z,4.00
2019-04-21T12:09:30.213Z,4.00
2019-04-21T12:10:31.419Z,4.00
2019-04-21T12:12:23.347Z,0.00
2019-04-21T12:13:24.474Z,0.00
2019-04-21T12:15:16.803Z,0.00
2019-04-21T12:16:16.983Z,0.00
2019-04-21T12:18:10.096Z,0.00
2019-04-21T12:19:10.029Z,0.00
2019-04-21T12:21:03.483Z,0.00
2019-04-21T12:22:11.273Z,0.00
2019-04-21T12:23:56.758Z,0.00
2019-04-21T12:24:57.523Z,0.00
2019-04-21T12:26:50.185Z,0.00
2019-04-21T12:27:50.050Z,0.00
2019-04-21T12:29:44.038Z,0.00
2019-04-21T12:30:43.406Z,0.00
2019-04-21T12:32:38.044Z,0.00
2019-04-21T12:33:38.041Z,0.00
2019-04-21T12:35:30.167Z,0.00
2019-04-21T12:36:30.083Z,0.00
2019-04-21T12:38:37.877Z,0.00
2019-04-21T12:39:24.965Z,0.00
2019-04-21T12:41:16.779Z,0.00
2019-04-21T12:42:16.789Z,0.00
2019-04-21T12:44:10.818Z,0.00
2019-04-21T12:45:10.113Z,0.00
2019-04-21T12:47:03.684Z,0.00
2019-04-21T12:48:04.282Z,0.00
2019-04-21T12:49:57.000Z,0.00
2019-04-21T12:50:57.472Z,0.00
2019-04-21T12:52:49.702Z,0.00
2019-04-21T12:53:49.842Z,0.00
2019-04-21T12:55:46.001Z,0.00
2019-04-21T12:56:43.339Z,0.00
2019-04-21T12:58:37.394Z,0.00
2019-04-21T12:59:37.648Z,0.00
2019-04-21T13:01:30.722Z,0.00
2019-04-21T13:02:29.680Z,0.00
2019-04-21T13:04:23.852Z,0.00
2019-04-21T13:05:23.024Z,0.00
2019-04-21T13:07:17.413Z,0.00
2019-04-21T13:08:17.651Z,0.00
2019-04-21T13:10:10.568Z,0.00
2019-04-21T13:11:11.346Z,0.00
2019-04-21T13:13:03.891Z,0.00
2019-04-21T13:14:04.056Z,0.00
2019-04-21T13:15:57.691Z,0.00
2019-04-21T13:16:57.325Z,0.00
2019-04-21T13:18:51.216Z,0.00
2019-04-21T13:19:51.362Z,0.00
2019-04-21T13:21:43.173Z,0.00
2019-04-21T13:22:43.832Z,0.00
2019-04-21T13:24:37.837Z,0.00
2019-04-21T13:25:36.514Z,0.00
2019-04-21T13:27:30.902Z,0.00
2019-04-21T13:28:30.400Z,0.00
2019-04-21T13:30:24.234Z,0.00
2019-04-21T13:31:24.474Z,0.00
2019-04-21T13:33:16.554Z,0.00
2019-04-21T13:34:17.910Z,0.00
2019-04-21T13:36:11.628Z,0.00
2019-04-21T13:37:09.889Z,0.00
2019-04-21T13:39:33.009Z,0.00
2019-04-21T13:40:27.892Z,0.00
2019-04-21T13:42:06.471Z,0.00
2019-04-21T13:42:59.271Z,0.00
2019-04-21T13:44:50.851Z,0.00
2019-04-21T13:45:49.929Z,0.00
2019-04-21T13:47:43.002Z,0.00
2019-04-21T13:48:44.409Z,0.00
2019-04-21T13:50:37.345Z,0.00
2019-04-21T13:51:36.152Z,0.00
2019-04-21T13:53:29.678Z,0.00
2019-04-21T13:54:29.703Z,0.00
2019-04-21T13:56:22.826Z,0.00
2019-04-21T13:57:22.803Z,0.00
2019-04-21T13:59:16.363Z,0.00
2019-04-21T14:00:17.249Z,0.00
2019-04-21T14:02:11.001Z,0.00
2019-04-21T14:03:10.404Z,0.00
2019-04-21T14:05:03.479Z,0.00
2019-04-21T14:06:02.833Z,0.00
2019-04-21T14:07:56.259Z,0.00
2019-04-21T14:08:56.883Z,0.00
2019-04-21T14:10:49.424Z,0.00
2019-04-21T14:11:49.412Z,0.00
2019-04-21T14:13:42.581Z,0.00
2019-04-21T14:14:42.384Z,0.00
2019-04-21T14:16:36.173Z,0.00
2019-04-21T14:17:36.936Z,0.00
2019-04-21T14:19:29.083Z,0.00
2019-04-21T14:20:29.137Z,0.00
2019-04-21T14:22:22.627Z,0.00
2019-04-21T14:23:31.757Z,0.00
2019-04-21T14:25:15.777Z,0.00
2019-04-21T14:26:16.255Z,0.00
2019-04-21T14:28:10.275Z,0.00
2019-04-21T14:29:11.068Z,0.00
2019-04-21T14:31:02.465Z,0.00
2019-04-21T14:32:02.444Z,0.00
2019-04-21T14:33:56.300Z,0.00
2019-04-21T14:34:56.588Z,0.00
2019-04-21T14:36:50.696Z,0.00
2019-04-21T14:37:49.134Z,0.00
2019-04-21T14:39:52.848Z,0.00
2019-04-21T14:40:42.472Z,0.00
2019-04-21T14:42:36.073Z,0.00
2019-04-21T14:43:36.191Z,0.00
2019-04-21T14:45:30.405Z,0.00
2019-04-21T14:46:29.182Z,0.00
2019-04-21T14:48:23.230Z,0.00
2019-04-21T14:49:23.548Z,0.00
2019-04-21T14:51:16.886Z,0.00
2019-04-21T14:52:16.878Z,0.00
2019-04-21T14:54:10.079Z,0.00
2019-04-21T14:55:09.192Z,0.00
2019-04-21T14:57:03.261Z,0.00
2019-04-21T14:58:03.310Z,0.00
2019-04-21T14:59:57.213Z,0.00
2019-04-21T15:00:55.879Z,0.00
2019-04-21T15:02:49.745Z,0.00
2019-04-21T15:03:50.007Z,0.00
2019-04-21T15:05:42.992Z,0.00
2019-04-21T15:06:43.296Z,0.00
2019-04-21T15:08:37.373Z,0.00
2019-04-21T15:09:38.950Z,0.00
2019-04-21T15:11:29.953Z,0.00
2019-04-21T15:12:29.975Z,0.00
2019-04-21T15:14:24.090Z,0.00
2019-04-21T15:15:23.521Z,0.00
2019-04-21T15:17:18.932Z,0.00
2019-04-21T15:18:16.841Z,0.00
2019-04-21T15:20:13.701Z,0.00
2019-04-21T15:21:09.325Z,0.00
2019-04-21T15:23:03.931Z,0.00
2019-04-21T15:24:02.665Z,0.00
2019-04-21T15:25:56.478Z,0.00
2019-04-21T15:26:56.925Z,0.00
2019-04-21T15:28:50.883Z,0.00
2019-04-21T15:29:49.351Z,0.00
2019-04-21T15:31:44.799Z,0.00
2019-04-21T15:32:42.704Z,0.00
2019-04-21T15:34:36.149Z,0.00
2019-04-21T15:35:37.257Z,0.00
2019-04-21T15:37:29.621Z,0.00
2019-04-21T15:38:29.818Z,0.00
2019-04-21T15:40:32.177Z,0.00
2019-04-21T15:41:22.746Z,0.00
2019-04-21T15:43:16.291Z,0.00
2019-04-21T15:44:16.493Z,0.00
2019-04-21T15:46:10.803Z,0.00
2019-04-21T15:47:10.238Z,0.00
2019-04-21T15:49:02.952Z,0.00
2019-04-21T15:50:07.400Z,0.00
2019-04-21T15:51:56.157Z,0.00
2019-04-21T15:52:56.100Z,0.00
2019-04-21T15:54:50.371Z,0.00
2019-04-21T15:55:50.662Z,0.00
2019-04-21T15:57:42.803Z,0.00
2019-04-21T15:58:42.938Z,0.00
2019-04-21T16:00:36.434Z,0.00
2019-04-21T16:01:36.545Z,0.00
2019-04-21T16:03:29.492Z,0.00
2019-04-21T16:04:30.684Z,0.00
2019-04-21T16:06:23.421Z,0.00
2019-04-21T16:07:22.818Z,0.00
2019-04-21T16:09:20.027Z,0.00
2019-04-21T16:10:28.298Z,0.00
2019-04-21T16:12:09.671Z,0.00
2019-04-21T16:13:09.780Z,0.00
2019-04-21T16:15:03.015Z,0.00
2019-04-21T16:16:02.367Z,0.00
2019-04-21T16:17:57.135Z,0.00
2019-04-21T16:18:56.296Z,0.00
2019-04-21T16:20:49.913Z,0.00
2019-04-21T16:21:50.308Z,0.00
2019-04-21T16:23:42.560Z,0.00
2019-04-21T16:24:43.881Z,0.00
2019-04-21T16:26:35.746Z,0.00
2019-04-21T16:27:37.149Z,0.00
2019-04-21T16:29:29.306Z,0.00
2019-04-21T16:30:29.087Z,0.00
2019-04-21T16:32:23.941Z,0.00
2019-04-21T16:33:23.137Z,0.00
2019-04-21T16:35:16.972Z,0.00
2019-04-21T16:36:17.077Z,0.00
2019-04-21T16:38:09.122Z,0.00
2019-04-21T16:39:09.495Z,0.00
2019-04-21T16:41:05.526Z,0.00
2019-04-21T16:42:02.587Z,0.00
2019-04-21T16:43:55.811Z,0.00
2019-04-21T16:44:56.817Z,0.00
2019-04-21T16:46:49.609Z,0.00
2019-04-21T16:47:51.765Z,0.00
2019-04-21T16:49:43.615Z,0.00
2019-04-21T16:50:43.592Z,0.00
2019-04-21T16:52:36.266Z,0.00
2019-04-21T16:53:35.829Z,0.00
2019-04-21T16:55:29.190Z,0.00
2019-04-21T16:56:29.208Z,0.00
2019-04-21T16:58:25.688Z,0.00
2019-04-21T16:59:22.515Z,0.00
2019-04-21T17:01:18.212Z,0.00
2019-04-21T17:02:16.519Z,0.00
2019-04-21T17:04:10.756Z,0.00
2019-04-21T17:05:09.995Z,0.00
2019-04-21T17:07:03.020Z,0.00
2019-04-21T17:08:03.965Z,0.00
2019-04-21T17:09:56.898Z,0.00
2019-04-21T17:11:06.204Z,0.00
2019-04-21T17:12:51.006Z,0.00
2019-04-21T17:13:50.043Z,0.00
2019-04-21T17:16:01.807Z,0.00
2019-04-21T17:17:12.210Z,0.00
2019-04-21T17:18:47.706Z,0.00
2019-04-21T17:19:43.589Z,0.00
2019-04-21T17:21:30.282Z,0.00
2019-04-21T17:22:31.407Z,0.00
2019-04-21T17:24:24.265Z,0.00
2019-04-21T17:25:25.903Z,0.00
2019-04-21T17:27:17.470Z,0.00
2019-04-21T17:28:17.354Z,0.00
2019-04-21T17:30:10.613Z,0.00
2019-04-21T17:31:10.871Z,0.00
2019-04-21T17:33:03.636Z,0.00
2019-04-21T17:34:10.265Z,0.00
2019-04-21T17:35:56.793Z,0.00
2019-04-21T17:36:57.200Z,0.00
2019-04-21T17:38:50.127Z,0.00
2019-04-21T17:39:49.454Z,0.00
2019-04-21T17:41:58.202Z,0.00
2019-04-21T17:42:49.218Z,0.00
2019-04-21T17:44:37.346Z,0.00
2019-04-21T17:45:37.220Z,0.00
2019-04-21T17:47:41.590Z,0.00
2019-04-21T17:48:29.471Z,0.00
2019-04-21T17:50:23.414Z,0.00
2019-04-21T17:51:23.415Z,0.00
2019-04-21T17:53:27.629Z,0.00
2019-04-21T17:54:23.100Z,0.00
2019-04-21T17:56:31.463Z,0.00
2019-04-21T17:57:32.335Z,0.00
2019-04-21T17:59:28.062Z,0.00
2019-04-21T18:00:43.405Z,0.00
2019-04-21T18:02:17.411Z,0.00
2019-04-21T18:03:27.524Z,0.00
2019-04-21T18:06:02.500Z,0.00
2019-04-21T18:07:54.750Z,0.00
2019-04-21T18:09:11.666Z,0.00
2019-04-21T18:10:50.687Z,0.00
2019-04-21T18:11:52.420Z,0.00
2019-04-21T18:13:30.519Z,0.00
2019-04-21T18:14:30.523Z,0.00
2019-04-21T18:16:31.559Z,0.00
2019-04-21T18:17:22.653Z,0.00
2019-04-21T18:19:19.408Z,0.00
2019-04-21T18:20:15.739Z,0.00
2019-04-21T18:22:09.482Z,0.00
2019-04-21T18:23:17.646Z,0.00
2019-04-21T18:25:06.979Z,0.00
2019-04-21T18:26:09.285Z,0.00
2019-04-21T18:27:56.399Z,0.00
2019-04-21T18:28:57.254Z,0.00
2019-04-21T18:30:48.955Z,0.00
2019-04-21T18:31:50.562Z,0.00
2019-04-21T18:33:43.913Z,0.00
2019-04-21T18:34:52.324Z,0.00
2019-04-21T18:36:38.370Z,0.00
2019-04-21T18:37:42.726Z,0.00
2019-04-21T18:39:40.951Z,0.00
2019-04-21T18:40:33.894Z,0.00
2019-04-21T18:42:37.398Z,0.00
2019-04-21T18:45:53.341Z,0.00
2019-04-21T18:46:38.601Z,0.00
2019-04-21T18:48:18.960Z,0.00
2019-04-21T18:49:09.277Z,0.00
2019-04-21T18:51:06.331Z,0.00
2019-04-21T18:52:11.393Z,0.00
2019-04-21T18:54:14.904Z,0.00
2019-04-21T18:55:05.372Z,0.00
2019-04-21T18:56:56.654Z,0.00
2019-04-21T18:57:51.273Z,0.00
2019-04-21T18:59:45.198Z,0.00
2019-04-21T19:00:44.158Z,0.00
2019-04-21T19:02:40.443Z,0.00
2019-04-21T19:03:41.098Z,0.00
2019-04-21T19:05:29.760Z,0.00
2019-04-21T19:06:46.942Z,0.00
2019-04-21T19:08:40.423Z,0.00
2019-04-21T19:10:01.751Z,0.00
2019-04-21T19:11:28.681Z,0.00
2019-04-21T19:13:16.036Z,0.00
2019-04-21T19:14:32.083Z,0.00
2019-04-21T19:15:20.297Z,0.00
2019-04-21T19:17:40.822Z,0.00
2019-04-21T19:20:29.476Z,0.00
2019-04-21T19:21:11.188Z,0.00
2019-04-21T19:23:08.727Z,0.00
2019-04-21T19:24:20.210Z,0.00
2019-04-21T19:26:10.397Z,0.00
2019-04-21T19:27:18.866Z,0.00